Terminal Aerodrome Forecast
Issued by NWS Charleston, WV

Current Version | Previous Version | Graphics & Text | Print | Product List | Glossary Off
Versions: 1 2 3 4 5 6 7 8 9 10 11 12 13 14 15 16 17 18 19 20 21 22 23 24

632
FTUS41 KRLX 300808 AAA
TAFHTS
TAF AMD
KHTS 300808Z 3008/3106 00000KT P6SM VCSH BKN045 BKN090
      TEMPO 3011/3012 5SM BR
     FM301330 27003KT P6SM SCT090
     FM301700 33006KT P6SM SCT050
     FM310000 33002KT P6SM SCT250=

USA.gov is the U.S. government's official web portal to all federal, state and local government web resources and services.